Time;durP1;ratioP1;P1;durP2;ratioP2;P2;SDS_P1;SDS_P2;PMS_P1;PMS_P2;Temp;Humidity;BMP_temperature;BMP_pressure;BME280_temperature;BME280_humidity;BME280_pressure;Samples;Min_cycle;Max_cycle;Signal;HPM_P1;HPM_P2
2022/11/03 00:01:37;;;;;;;8.82;1.98;;;12.30;99.90;;;;;;5067440;28;20111;-63
2022/11/03 00:04:08;;;;;;;14.15;2.60;;;12.30;99.90;;;;;;5086876;28;20040;-63
2022/11/03 00:06:34;;;;;;;11.77;2.38;;;12.30;99.90;;;;;;5084936;28;20049;-63
2022/11/03 00:09:02;;;;;;;13.88;2.70;;;12.20;99.90;;;;;;5081991;28;20103;-63
2022/11/03 00:11:30;;;;;;;9.85;2.47;;;12.10;99.90;;;;;;5086262;28;20186;-63
2022/11/03 00:13:56;;;;;;;9.57;2.30;;;12.20;99.90;;;;;;5068558;28;20162;-63
2022/11/03 00:16:22;;;;;;;13.32;2.85;;;12.20;99.90;;;;;;5073058;28;20086;-63
2022/11/03 00:18:48;;;;;;;11.88;2.63;;;12.20;99.90;;;;;;5075527;28;20098;-63
2022/11/03 00:21:13;;;;;;;17.77;3.67;;;12.20;99.90;;;;;;5067869;28;20040;-63
2022/11/03 00:23:42;;;;;;;10.18;2.13;;;12.10;99.90;;;;;;5086448;28;20040;-63
2022/11/03 00:26:13;;;;;;;14.20;2.50;;;12.10;99.90;;;;;;5072754;28;20114;-63
2022/11/03 00:28:44;;;;;;;11.95;2.80;;;12.20;99.90;;;;;;5079112;28;20101;-62
2022/11/03 00:31:12;;;;;;;12.57;2.40;;;12.20;99.90;;;;;;5085271;28;20100;-62
2022/11/03 00:33:39;;;;;;;11.02;2.17;;;12.10;99.90;;;;;;5067703;28;20557;-63
2022/11/03 00:36:06;;;;;;;13.98;2.58;;;12.20;99.90;;;;;;5071987;28;20051;-62
2022/11/03 00:38:32;;;;;;;12.77;2.65;;;12.20;99.90;;;;;;5067484;28;20036;-62
2022/11/03 00:41:00;;;;;;;11.65;2.50;;;12.20;99.90;;;;;;5070596;28;20052;-62
2022/11/03 00:43:27;;;;;;;10.07;2.45;;;12.20;99.90;;;;;;5078144;28;20101;-63
2022/11/03 00:45:53;;;;;;;9.98;2.63;;;12.20;99.90;;;;;;5091693;28;20168;-63
2022/11/03 00:48:28;;;;;;;15.02;3.10;;;12.20;99.90;;;;;;5087476;28;20048;-63
2022/11/03 00:51:26;;;;;;;11.60;2.67;;;12.10;99.90;;;;;;5091623;28;20051;-62
2022/11/03 00:53:54;;;;;;;9.75;2.83;;;12.10;99.90;;;;;;4996042;28;20059;-62
2022/11/03 00:56:25;;;;;;;10.35;2.85;;;12.00;99.90;;;;;;5003871;28;20113;-63
2022/11/03 00:58:52;;;;;;;10.88;2.88;;;12.10;99.90;;;;;;5002206;28;20046;-62
2022/11/03 01:01:24;;;;;;;15.05;3.08;;;12.10;99.90;;;;;;4984741;28;20043;-62
2022/11/03 01:06:53;;;;;;;9.48;2.40;;;12.20;99.90;;;;;;5008527;28;20097;-62
2022/11/03 01:09:33;;;;;;;13.18;2.88;;;12.10;99.90;;;;;;4983686;28;20125;-62
2022/11/03 01:12:15;;;;;;;15.95;3.13;;;12.10;99.90;;;;;;4984367;28;20091;-62
2022/11/03 01:14:51;;;;;;;14.07;2.75;;;12.10;99.90;;;;;;5007170;28;20058;-62
2022/11/03 01:17:22;;;;;;;11.45;2.78;;;12.10;99.90;;;;;;5002082;28;20069;-62
2022/11/03 01:19:48;;;;;;;13.38;2.17;;;12.00;99.90;;;;;;4993395;28;20065;-62
2022/11/03 01:22:15;;;;;;;10.75;2.60;;;12.10;99.90;;;;;;4986594;28;20055;-62
2022/11/03 01:24:41;;;;;;;12.27;2.40;;;12.10;99.90;;;;;;5002965;28;20835;-62
2022/11/03 01:27:17;;;;;;;11.75;2.95;;;12.00;99.90;;;;;;4992002;28;20139;-62
2022/11/03 01:29:43;;;;;;;15.20;3.45;;;12.00;99.90;;;;;;5035238;28;20112;-62
2022/11/03 01:32:10;;;;;;;9.95;2.38;;;12.00;99.90;;;;;;5089304;28;20045;-62
2022/11/03 01:34:36;;;;;;;12.32;2.53;;;12.00;99.90;;;;;;5090923;28;20523;-62
2022/11/03 01:37:01;;;;;;;10.85;2.42;;;12.10;99.90;;;;;;5066441;28;20041;-62
2022/11/03 01:39:27;;;;;;;11.90;2.47;;;12.00;99.90;;;;;;5090258;28;20041;-62
2022/11/03 01:41:53;;;;;;;11.65;2.95;;;12.00;99.90;;;;;;5066722;28;20048;-63
2022/11/03 01:44:26;;;;;;;13.85;2.72;;;12.00;99.90;;;;;;5085085;28;20055;-63
2022/11/03 01:47:22;;;;;;;12.38;2.50;;;11.90;99.90;;;;;;5047715;28;20103;-62
2022/11/03 01:50:02;;;;;;;9.18;2.45;;;11.80;99.90;;;;;;5047852;28;20059;-62
2022/11/03 01:52:35;;;;;;;;;;;11.70;99.90;;;;;;5070495;28;20451;-62
2022/11/03 01:55:05;;;;;;;12.35;2.42;;;11.70;99.90;;;;;;5072490;28;19925;-62
2022/11/03 01:57:42;;;;;;;13.30;3.10;;;11.90;99.90;;;;;;5083542;28;20093;-62
2022/11/03 02:00:09;;;;;;;11.32;2.30;;;11.90;99.90;;;;;;5080402;28;20045;-62
2022/11/03 02:02:34;;;;;;;9.77;3.00;;;11.90;99.90;;;;;;5066602;28;20045;-62
2022/11/03 02:05:03;;;;;;;14.25;2.90;;;11.90;99.90;;;;;;5086844;28;20051;-62
2022/11/03 02:07:34;;;;;;;17.50;3.40;;;11.80;99.90;;;;;;5084985;28;20047;-62
2022/11/03 02:10:00;;;;;;;15.05;3.10;;;11.80;99.90;;;;;;5087479;28;20048;-63
2022/11/03 02:12:26;;;;;;;13.98;2.65;;;11.80;99.90;;;;;;5090084;28;20033;-63
2022/11/03 02:14:57;;;;;;;11.38;2.40;;;11.90;99.90;;;;;;5075798;28;20041;-62
2022/11/03 02:17:26;;;;;;;11.27;2.60;;;11.80;99.90;;;;;;5082835;28;20049;-62
2022/11/03 02:20:03;;;;;;;11.90;2.42;;;11.90;99.90;;;;;;5072292;28;20048;-62
2022/11/03 02:22:55;;;;;;;9.60;2.72;;;12.00;99.90;;;;;;5094168;28;20067;-63
2022/11/03 02:25:39;;;;;;;9.63;2.40;;;12.00;99.90;;;;;;5084199;28;20084;-62
2022/11/03 02:28:05;;;;;;;11.00;2.35;;;12.00;99.90;;;;;;5083841;28;20076;-62
2022/11/03 02:30:40;;;;;;;10.82;2.50;;;12.10;99.90;;;;;;5067884;28;20058;-62
2022/11/03 02:33:09;;;;;;;13.80;2.75;;;12.00;99.90;;;;;;5094390;28;20033;-62
2022/11/03 02:35:51;;;;;;;8.98;2.53;;;12.10;99.90;;;;;;5073576;28;20053;-62
2022/11/03 02:38:20;;;;;;;12.07;2.70;;;12.00;99.90;;;;;;5078769;28;20072;-62
2022/11/03 02:40:50;;;;;;;13.20;3.13;;;12.00;99.90;;;;;;5091092;28;20048;-62
2022/11/03 02:43:17;;;;;;;8.25;2.33;;;12.00;99.90;;;;;;5066917;28;20070;-62
2022/11/03 02:45:46;;;;;;;12.05;2.80;;;12.10;99.90;;;;;;5058603;28;20057;-63
2022/11/03 02:48:15;;;;;;;11.13;2.20;;;12.00;99.90;;;;;;5081559;28;20048;-62
2022/11/03 02:50:41;;;;;;;14.02;3.40;;;12.00;99.90;;;;;;5064873;28;20088;-62
2022/11/03 02:53:11;;;;;;;15.60;4.00;;;11.90;99.90;;;;;;5069922;28;20036;-62
2022/11/03 02:55:48;;;;;;;11.90;2.67;;;12.00;99.90;;;;;;5064647;28;20052;-63
2022/11/03 02:58:32;;;;;;;14.18;3.22;;;11.90;99.90;;;;;;5081120;28;20065;-63
2022/11/03 03:01:15;;;;;;;15.35;3.22;;;11.90;99.90;;;;;;5095097;28;20545;-62
2022/11/03 03:03:46;;;;;;;10.55;3.17;;;11.90;99.90;;;;;;5094266;28;20056;-62
2022/11/03 03:06:19;;;;;;;10.50;2.50;;;11.90;99.90;;;;;;5075591;28;20048;-63
2022/11/03 03:08:57;;;;;;;11.50;2.40;;;11.80;99.90;;;;;;5092401;28;20512;-63
2022/11/03 03:11:38;;;;;;;12.68;2.78;;;11.70;99.90;;;;;;5077183;28;20072;-62
2022/11/03 03:14:08;;;;;;;12.02;3.00;;;11.70;99.90;;;;;;5071953;28;20105;-62
2022/11/03 03:16:37;;;;;;;;;;;11.80;99.90;;;;;;5084848;28;20051;-62
2022/11/03 03:19:16;;;;;;;7.20;2.30;;;11.90;99.90;;;;;;5077611;28;20380;-62
2022/11/03 03:21:46;;;;;;;9.45;2.35;;;11.90;99.90;;;;;;5087463;28;20055;-63
2022/11/03 03:24:27;;;;;;;;;;;11.90;99.90;;;;;;5094223;28;20041;-62
2022/11/03 03:26:57;;;;;;;12.93;2.20;;;11.90;99.90;;;;;;5093074;28;19920;-62
2022/11/03 03:29:32;;;;;;;11.60;2.40;;;11.90;99.90;;;;;;5087740;28;20043;-62
2022/11/03 03:32:05;;;;;;;8.70;2.25;;;11.90;99.90;;;;;;5080597;28;20059;-62
2022/11/03 03:34:32;;;;;;;9.68;2.47;;;11.90;99.90;;;;;;5088400;28;20052;-62
2022/11/03 03:36:58;;;;;;;11.40;2.60;;;11.90;99.90;;;;;;5099922;28;20071;-62
2022/11/03 03:39:29;;;;;;;10.63;2.45;;;11.90;99.90;;;;;;5087568;28;20079;-62
2022/11/03 03:41:55;;;;;;;;;;;11.90;99.90;;;;;;5106588;28;20040;-63
2022/11/03 03:44:22;;;;;;;12.95;3.20;;;11.90;99.90;;;;;;5086465;28;19925;-62
2022/11/03 03:46:54;;;;;;;14.52;2.67;;;11.80;99.90;;;;;;5078630;28;20053;-62
2022/11/03 03:49:20;;;;;;;11.70;2.85;;;11.80;99.90;;;;;;5048942;28;20060;-62
2022/11/03 03:51:48;;;;;;;16.00;2.90;;;11.80;99.90;;;;;;5083602;28;20037;-62
2022/11/03 03:54:13;;;;;;;11.13;2.65;;;11.80;99.90;;;;;;5086125;28;20515;-62
2022/11/03 03:56:46;;;;;;;15.52;3.33;;;11.90;99.90;;;;;;5035034;28;20065;-62
2022/11/03 03:59:12;;;;;;;12.10;2.63;;;12.00;99.90;;;;;;5075383;28;20044;-62
2022/11/03 04:01:38;;;;;;;12.18;2.47;;;11.90;99.90;;;;;;5085907;28;20128;-62
2022/11/03 04:04:04;;;;;;;12.50;3.67;;;11.90;99.90;;;;;;5089864;28;20048;-62
2022/11/03 04:06:30;;;;;;;10.95;3.30;;;11.80;99.90;;;;;;5079394;28;20051;-62
2022/11/03 04:08:55;;;;;;;14.23;3.20;;;11.70;99.90;;;;;;5081733;28;20044;-63
2022/11/03 04:22:20;;;;;;;14.05;3.03;;;11.70;99.90;;;;;;5081051;28;20036;-62
2022/11/03 04:24:48;;;;;;;11.68;2.72;;;11.70;99.90;;;;;;5082148;28;20553;-62
2022/11/03 04:27:27;;;;;;;15.27;3.13;;;11.70;99.90;;;;;;5085789;28;20119;-63
2022/11/03 04:29:56;;;;;;;11.90;2.83;;;11.70;99.90;;;;;;5058108;28;20073;-62
2022/11/03 04:32:21;;;;;;;15.98;3.47;;;11.70;99.90;;;;;;5058128;28;20045;-62
2022/11/03 04:34:47;;;;;;;12.88;3.33;;;11.70;99.90;;;;;;5037656;28;20079;-62
2022/11/03 04:37:14;;;;;;;9.93;2.42;;;11.60;99.90;;;;;;5055859;28;20072;-62
2022/11/03 04:39:40;;;;;;;12.10;2.72;;;11.60;99.90;;;;;;5077420;28;20044;-62
2022/11/03 04:42:19;;;;;;;10.05;2.20;;;11.60;99.90;;;;;;5077181;28;20032;-63
2022/11/03 04:44:46;;;;;;;11.68;3.45;;;11.60;99.90;;;;;;5079744;28;20044;-63
2022/11/03 04:47:13;;;;;;;15.27;2.92;;;11.60;99.90;;;;;;5078151;28;20075;-62
2022/11/03 04:49:39;;;;;;;9.38;2.75;;;11.50;99.90;;;;;;5074799;28;20049;-62
2022/11/03 04:52:16;;;;;;;11.25;2.72;;;11.70;99.90;;;;;;5066356;28;20037;-63
2022/11/03 04:54:42;;;;;;;13.52;2.67;;;11.60;99.90;;;;;;5074008;28;20454;-62
2022/11/03 04:57:11;;;;;;;12.45;2.67;;;11.60;99.90;;;;;;5072940;28;20041;-62
2022/11/03 04:59:37;;;;;;;12.68;3.08;;;11.70;99.90;;;;;;5093354;28;20129;-62
2022/11/03 05:02:10;;;;;;;16.00;3.55;;;11.60;99.90;;;;;;5092242;28;20043;-64
2022/11/03 05:04:36;;;;;;;10.52;2.95;;;11.70;99.90;;;;;;5076624;28;20096;-62
2022/11/03 05:07:01;;;;;;;14.27;3.20;;;11.70;99.90;;;;;;5077283;28;20037;-62
2022/11/03 05:09:30;;;;;;;11.00;3.15;;;11.80;99.90;;;;;;5076260;28;20066;-63
2022/11/03 05:11:55;;;;;;;12.27;3.42;;;11.70;99.90;;;;;;5058462;28;20493;-63
2022/11/03 05:14:26;;;;;;;11.75;3.17;;;11.70;99.90;;;;;;5084308;28;20050;-62
2022/11/03 05:16:54;;;;;;;11.82;3.67;;;11.70;99.90;;;;;;5064043;28;20036;-62
2022/11/03 05:19:21;;;;;;;13.65;3.15;;;11.80;99.90;;;;;;5047404;28;20048;-62
2022/11/03 05:21:49;;;;;;;8.13;2.88;;;11.70;99.90;;;;;;5083734;28;20054;-62
2022/11/03 05:24:17;;;;;;;14.75;4.78;;;11.80;99.90;;;;;;5074996;28;20408;-62
2022/11/03 05:26:44;;;;;;;16.23;3.13;;;11.70;99.90;;;;;;5071341;28;20130;-62
2022/11/03 05:29:24;;;;;;;11.77;2.67;;;11.70;99.90;;;;;;5065338;28;20048;-62
2022/11/03 05:31:50;;;;;;;;;;;11.90;99.90;;;;;;5067322;28;20053;-63
2022/11/03 05:34:41;;;;;;;13.63;2.97;;;11.70;99.90;;;;;;5069928;28;19960;-63
2022/11/03 05:37:27;;;;;;;11.65;2.72;;;11.80;99.90;;;;;;5079433;28;20045;-63
2022/11/03 05:40:16;;;;;;;17.08;3.53;;;11.90;99.90;;;;;;5085250;28;20066;-62
2022/11/03 05:42:44;;;;;;;16.07;3.40;;;11.90;99.90;;;;;;5080518;28;20070;-62
2022/11/03 05:45:15;;;;;;;10.13;3.03;;;11.80;99.90;;;;;;5083238;28;20052;-63
2022/11/03 05:47:41;;;;;;;11.73;3.00;;;11.70;99.90;;;;;;5079538;28;20124;-62
2022/11/03 05:50:24;;;;;;;11.00;2.78;;;11.70;99.90;;;;;;5094003;28;20040;-63
2022/11/03 05:52:55;;;;;;;10.40;2.85;;;11.90;99.90;;;;;;5075226;28;20101;-63
2022/11/03 05:55:26;;;;;;;10.85;2.65;;;11.70;99.90;;;;;;5088840;28;20048;-62
2022/11/03 05:57:59;;;;;;;10.10;3.08;;;11.70;99.90;;;;;;5041547;28;20052;-63
2022/11/03 06:00:29;;;;;;;6.18;2.20;;;11.70;99.90;;;;;;5090414;28;20042;-64
2022/11/03 06:02:54;;;;;;;;;;;11.80;99.90;;;;;;5069088;28;20041;-64
2022/11/03 06:05:22;;;;;;;13.70;3.10;;;11.70;99.90;;;;;;5087772;28;20025;-63
2022/11/03 06:07:49;;;;;;;15.13;3.92;;;11.70;99.90;;;;;;5069306;28;20097;-63
2022/11/03 06:10:28;;;;;;;10.05;2.97;;;11.90;99.90;;;;;;5059818;28;20165;-62
2022/11/03 06:13:00;;;;;;;12.77;3.38;;;11.70;99.90;;;;;;5090532;28;20083;-62
2022/11/03 06:15:33;;;;;;;14.27;3.53;;;11.70;99.90;;;;;;5090650;28;20044;-62
2022/11/03 06:18:00;;;;;;;7.70;2.63;;;11.70;99.90;;;;;;5039442;28;20094;-63
2022/11/03 06:20:27;;;;;;;14.13;3.08;;;11.80;99.90;;;;;;5052133;28;20124;-62
2022/11/03 06:22:55;;;;;;;15.25;2.80;;;11.80;99.90;;;;;;5060833;28;20525;-62
2022/11/03 06:25:34;;;;;;;12.30;3.08;;;11.70;99.90;;;;;;5059679;28;20285;-63
2022/11/03 06:28:03;;;;;;;10.43;2.88;;;11.70;99.90;;;;;;5073077;28;20058;-64
2022/11/03 06:30:34;;;;;;;11.77;2.88;;;11.70;99.90;;;;;;5060286;28;20107;-63
2022/11/03 06:33:12;;;;;;;11.63;3.10;;;11.70;99.90;;;;;;5053819;28;20032;-64
2022/11/03 06:35:38;;;;;;;15.27;2.85;;;11.70;99.90;;;;;;5067844;28;20059;-63
2022/11/03 06:38:13;;;;;;;13.38;2.83;;;11.70;99.90;;;;;;5058567;28;20139;-64
2022/11/03 06:40:39;;;;;;;13.60;2.92;;;11.70;99.90;;;;;;5059923;28;20075;-63
2022/11/03 06:43:15;;;;;;;13.43;3.20;;;11.90;99.90;;;;;;5036890;28;20040;-65
2022/11/03 06:45:48;;;;;;;12.15;3.22;;;11.80;99.90;;;;;;5060028;28;20195;-65
2022/11/03 06:48:21;;;;;;;10.60;2.78;;;11.80;99.90;;;;;;5052628;28;20104;-65
2022/11/03 06:50:47;;;;;;;10.02;2.20;;;11.90;99.90;;;;;;5083926;28;20127;-65
2022/11/03 06:53:20;;;;;;;11.73;2.83;;;11.90;99.90;;;;;;5075518;28;20074;-65
2022/11/03 06:55:49;;;;;;;7.63;2.70;;;11.90;99.90;;;;;;5065208;28;20096;-64
2022/11/03 06:58:31;;;;;;;13.43;3.17;;;11.90;99.90;;;;;;5026829;28;20052;-65
2022/11/03 07:01:01;;;;;;;9.70;3.20;;;11.80;99.90;;;;;;5074165;28;20044;-65
2022/11/03 07:03:32;;;;;;;13.75;2.67;;;12.00;99.90;;;;;;5053932;28;20555;-65
2022/11/03 07:06:10;;;;;;;8.18;2.63;;;12.00;99.90;;;;;;5072159;28;20040;-65
2022/11/03 07:08:38;;;;;;;10.02;3.20;;;12.00;99.90;;;;;;5050230;28;20115;-65
2022/11/03 07:11:24;;;;;;;11.38;3.53;;;12.00;99.90;;;;;;5042098;28;20049;-65
2022/11/03 07:14:15;;;;;;;8.68;2.63;;;12.00;99.90;;;;;;5056679;28;20139;-65
2022/11/03 07:16:44;;;;;;;11.52;2.65;;;11.90;99.90;;;;;;5033839;28;20045;-66
2022/11/03 07:19:22;;;;;;;8.32;2.80;;;12.00;99.90;;;;;;5055693;28;20052;-66
2022/11/03 07:22:01;;;;;;;11.48;2.90;;;12.10;99.90;;;;;;5060580;28;20033;-65
2022/11/03 07:24:29;;;;;;;9.93;2.83;;;12.10;99.90;;;;;;5065720;28;20087;-66
2022/11/03 07:27:12;;;;;;;14.68;3.65;;;12.10;99.90;;;;;;5049147;28;20049;-66
2022/11/03 07:29:39;;;;;;;13.23;2.85;;;12.20;99.90;;;;;;5061559;28;20099;-66
2022/11/03 07:32:14;;;;;;;13.98;3.05;;;12.20;99.90;;;;;;5064583;28;20377;-66
2022/11/03 07:34:40;;;;;;;11.13;3.35;;;12.40;99.90;;;;;;5046043;28;20525;-65
2022/11/03 07:37:12;;;;;;;14.07;3.42;;;12.40;99.90;;;;;;5071146;28;20054;-66
2022/11/03 07:39:38;;;;;;;10.75;3.10;;;12.40;99.90;;;;;;5060822;28;20048;-65
2022/11/03 07:42:23;;;;;;;10.75;2.80;;;12.40;99.90;;;;;;5075475;28;20060;-66
2022/11/03 07:44:50;;;;;;;11.00;3.20;;;12.30;99.90;;;;;;5061043;28;20443;-66
2022/11/03 07:47:20;;;;;;;9.60;2.40;;;12.30;99.90;;;;;;5075822;28;20090;-65
2022/11/03 07:49:46;;;;;;;14.70;3.10;;;12.30;99.90;;;;;;5071227;28;20044;-65
2022/11/03 07:52:15;;;;;;;11.55;3.30;;;12.30;99.90;;;;;;5063147;28;20084;-65
2022/11/03 07:54:41;;;;;;;11.00;3.50;;;12.40;99.90;;;;;;5056378;28;20060;-65
2022/11/03 07:57:23;;;;;;;11.23;3.47;;;12.40;99.90;;;;;;5066413;28;20071;-65
2022/11/03 08:00:00;;;;;;;11.20;3.20;;;12.40;99.90;;;;;;5053695;28;20052;-65
2022/11/03 08:02:28;;;;;;;13.50;3.17;;;12.50;99.90;;;;;;5069989;28;20049;-65
2022/11/03 08:04:54;;;;;;;9.43;2.42;;;12.50;99.90;;;;;;5075026;28;20049;-65
2022/11/03 08:07:20;;;;;;;10.27;3.28;;;12.50;99.90;;;;;;5078898;28;20063;-65
2022/11/03 08:09:45;;;;;;;11.32;3.35;;;12.50;99.90;;;;;;5059898;28;20048;-65
2022/11/03 08:12:11;;;;;;;10.18;2.72;;;12.60;99.90;;;;;;5040127;28;20642;-63
2022/11/03 08:14:37;;;;;;;9.85;2.92;;;12.60;99.90;;;;;;5065509;28;20052;-63
2022/11/03 08:17:03;;;;;;;13.98;2.88;;;12.50;99.90;;;;;;5078603;28;20067;-65
2022/11/03 08:19:29;;;;;;;12.60;2.88;;;12.60;99.90;;;;;;5082889;28;20106;-62
2022/11/03 08:21:55;;;;;;;15.13;3.78;;;12.70;99.90;;;;;;5079015;28;20441;-62
2022/11/03 08:24:21;;;;;;;13.25;3.60;;;12.70;99.90;;;;;;5061812;28;20095;-63
2022/11/03 08:26:47;;;;;;;14.65;3.17;;;12.70;99.90;;;;;;5071865;28;20071;-63
2022/11/03 08:29:13;;;;;;;12.55;3.13;;;12.80;99.90;;;;;;5072082;28;20071;-63
2022/11/03 08:31:39;;;;;;;10.63;2.90;;;12.90;99.90;;;;;;5083493;28;20056;-63
2022/11/03 08:34:05;;;;;;;14.43;3.88;;;12.80;99.90;;;;;;5066934;28;20055;-63
2022/11/03 08:36:30;;;;;;;10.13;3.22;;;12.80;99.90;;;;;;5066778;28;20079;-63
2022/11/03 08:38:56;;;;;;;12.13;3.30;;;12.80;99.90;;;;;;5062493;28;20059;-63
2022/11/03 08:41:22;;;;;;;12.23;3.63;;;12.90;99.90;;;;;;5054935;28;20095;-63
2022/11/03 08:43:47;;;;;;;12.38;2.92;;;13.00;99.90;;;;;;5051481;28;20054;-63
2022/11/03 08:46:13;;;;;;;12.02;3.13;;;13.00;99.90;;;;;;5054271;28;20057;-62
2022/11/03 08:48:39;;;;;;;15.15;3.95;;;13.10;99.90;;;;;;5068360;28;20073;-63
2022/11/03 08:51:06;;;;;;;11.88;3.08;;;13.00;99.90;;;;;;5043542;28;20468;-63
2022/11/03 08:53:33;;;;;;;13.93;3.40;;;13.00;99.90;;;;;;5052725;28;20052;-65
2022/11/03 08:55:59;;;;;;;8.82;3.22;;;13.10;99.90;;;;;;5065411;28;20067;-63
2022/11/03 08:58:25;;;;;;;8.38;2.53;;;13.10;99.90;;;;;;5055988;28;20049;-63
2022/11/03 09:00:50;;;;;;;12.40;2.85;;;13.20;99.90;;;;;;5046587;28;20175;-63
2022/11/03 09:03:16;;;;;;;13.05;3.80;;;13.20;99.90;;;;;;5074336;28;20040;-63
2022/11/03 09:05:42;;;;;;;15.05;3.63;;;13.30;99.90;;;;;;5063744;28;20066;-63
2022/11/03 09:08:08;;;;;;;14.63;2.88;;;13.20;99.90;;;;;;5074096;28;20037;-63
2022/11/03 09:10:33;;;;;;;11.50;3.10;;;13.30;99.90;;;;;;5036199;28;20060;-63
2022/11/03 09:12:59;;;;;;;9.45;2.97;;;13.50;99.90;;;;;;5059002;28;20053;-63
2022/11/03 09:15:25;;;;;;;11.90;2.67;;;13.60;99.90;;;;;;5064367;28;20044;-63
2022/11/03 09:17:51;;;;;;;9.40;3.20;;;13.50;99.90;;;;;;5073586;28;20048;-63
2022/11/03 09:20:17;;;;;;;12.73;3.50;;;13.50;99.90;;;;;;5075917;28;20128;-62
2022/11/03 09:22:43;;;;;;;11.57;3.00;;;13.50;99.90;;;;;;5063253;28;20058;-62
2022/11/03 09:25:09;;;;;;;11.00;3.05;;;13.60;99.90;;;;;;5064583;28;20068;-62
2022/11/03 09:27:35;;;;;;;12.10;3.08;;;13.60;99.90;;;;;;5054278;28;20040;-63
2022/11/03 09:30:00;;;;;;;17.15;3.28;;;13.70;99.90;;;;;;5047820;28;20120;-62
2022/11/03 09:32:26;;;;;;;13.43;2.72;;;13.70;99.90;;;;;;5062746;28;20041;-62
2022/11/03 09:34:52;;;;;;;12.48;3.78;;;13.80;99.90;;;;;;5068809;28;20056;-62
2022/11/03 09:37:17;;;;;;;11.77;3.60;;;13.70;99.90;;;;;;5060485;28;20265;-63
2022/11/03 09:39:43;;;;;;;10.75;3.03;;;13.80;99.90;;;;;;5079197;28;20052;-62
2022/11/03 09:42:10;;;;;;;8.40;2.90;;;13.80;99.90;;;;;;5072947;28;20076;-63
2022/11/03 09:44:37;;;;;;;10.02;2.97;;;13.90;99.90;;;;;;5073072;28;20060;-62
2022/11/03 09:47:04;;;;;;;14.45;3.13;;;13.80;99.90;;;;;;5085807;28;20056;-62
2022/11/03 09:49:32;;;;;;;12.13;2.97;;;13.90;99.90;;;;;;5055195;28;20116;-62
2022/11/03 09:51:59;;;;;;;9.38;2.83;;;14.00;99.90;;;;;;5065664;28;20056;-62
2022/11/03 09:54:26;;;;;;;10.05;2.65;;;14.10;99.90;;;;;;5055947;28;20322;-62
2022/11/03 09:56:52;;;;;;;12.80;3.67;;;14.20;99.90;;;;;;5073255;28;20131;-63
2022/11/03 09:59:22;;;;;;;10.60;3.05;;;14.50;99.90;;;;;;5051358;28;20189;-62
2022/11/03 10:01:52;;;;;;;14.80;3.00;;;14.60;99.90;;;;;;5075993;28;20068;-63
2022/11/03 10:04:26;;;;;;;7.63;2.78;;;14.90;99.90;;;;;;5054651;28;20072;-62
2022/11/03 10:06:55;;;;;;;10.65;3.13;;;15.10;99.90;;;;;;5071497;28;20548;-62
2022/11/03 10:09:22;;;;;;;13.45;2.67;;;15.30;99.90;;;;;;5063540;28;20051;-62
2022/11/03 10:11:50;;;;;;;11.75;2.50;;;15.50;99.90;;;;;;5047039;28;20048;-62
2022/11/03 10:14:17;;;;;;;12.00;3.15;;;15.60;99.90;;;;;;5076401;28;20082;-62
2022/11/03 10:16:54;;;;;;;11.60;3.50;;;15.60;99.90;;;;;;5057819;28;20051;-62
2022/11/03 10:19:20;;;;;;;10.57;2.70;;;15.60;99.90;;;;;;5070246;28;20154;-62
2022/11/03 10:21:46;;;;;;;11.75;2.92;;;15.50;99.90;;;;;;5069523;28;20072;-62
2022/11/03 10:24:13;;;;;;;11.65;3.42;;;15.60;99.90;;;;;;5079699;28;20677;-62
2022/11/03 10:26:51;;;;;;;8.50;2.80;;;15.60;99.90;;;;;;5072732;28;20049;-62
2022/11/03 10:29:24;;;;;;;10.73;3.20;;;15.60;99.90;;;;;;5078962;28;20060;-62
2022/11/03 10:31:53;;;;;;;9.23;2.60;;;15.70;99.90;;;;;;5070610;28;20355;-62
2022/11/03 10:34:36;;;;;;;10.32;2.92;;;15.70;99.90;;;;;;5082698;28;20055;-63
2022/11/03 10:37:12;;;;;;;11.98;2.70;;;15.90;99.90;;;;;;5072134;28;20050;-63
2022/11/03 10:39:37;;;;;;;12.50;2.67;;;15.80;99.90;;;;;;5055238;28;20281;-63
2022/11/03 10:42:03;;;;;;;13.52;3.00;;;15.80;99.90;;;;;;5068874;28;20059;-62
2022/11/03 10:44:30;;;;;;;9.63;2.95;;;15.70;99.90;;;;;;5066025;28;20239;-62
2022/11/03 10:47:00;;;;;;;16.33;2.97;;;15.60;99.90;;;;;;5092563;28;20408;-63
2022/11/03 10:49:31;;;;;;;8.48;2.72;;;15.50;99.90;;;;;;5052624;28;20091;-62
2022/11/03 10:52:23;;;;;;;9.70;2.58;;;15.50;99.90;;;;;;5061848;28;20120;-62
2022/11/03 10:54:52;;;;;;;11.45;3.10;;;15.60;99.90;;;;;;5061958;28;20058;-62
2022/11/03 10:57:19;;;;;;;16.98;3.13;;;15.70;99.90;;;;;;5067987;28;20066;-62
2022/11/03 10:59:47;;;;;;;9.13;2.70;;;15.70;99.90;;;;;;5077567;28;20056;-62
2022/11/03 11:02:19;;;;;;;9.18;3.17;;;15.60;99.90;;;;;;5062210;28;20394;-63
2022/11/03 11:04:47;;;;;;;10.73;3.17;;;15.60;99.90;;;;;;5064611;28;20052;-62
2022/11/03 11:07:28;;;;;;;11.30;2.75;;;15.70;99.90;;;;;;5075084;28;20096;-63
2022/11/03 11:09:54;;;;;;;12.25;2.70;;;15.70;99.90;;;;;;5069267;28;20139;-63
2022/11/03 11:12:24;;;;;;;13.82;3.05;;;15.80;99.90;;;;;;5068082;28;20065;-62
2022/11/03 11:14:51;;;;;;;10.00;2.72;;;15.90;99.90;;;;;;5067660;28;20543;-62
2022/11/03 11:17:46;;;;;;;10.52;2.92;;;15.90;99.90;;;;;;5068969;28;20051;-63
2022/11/03 11:20:17;;;;;;;14.68;3.10;;;16.10;99.90;;;;;;5052963;28;20071;-62
2022/11/03 11:22:47;;;;;;;9.88;3.05;;;16.10;99.90;;;;;;5058605;28;20052;-62
2022/11/03 11:25:13;;;;;;;11.25;2.70;;;16.20;99.90;;;;;;5051021;28;20053;-62
2022/11/03 11:27:46;;;;;;;13.13;3.03;;;16.30;99.90;;;;;;5049229;28;20041;-63
2022/11/03 11:30:20;;;;;;;9.05;3.28;;;16.40;99.90;;;;;;5030375;28;20049;-62
2022/11/03 11:32:48;;;;;;;10.35;3.05;;;16.40;99.90;;;;;;5076865;28;20033;-63
2022/11/03 11:35:14;;;;;;;7.70;2.60;;;16.40;99.90;;;;;;5046443;28;20560;-63
2022/11/03 11:37:39;;;;;;;8.88;2.38;;;16.40;99.90;;;;;;5064775;28;20044;-63
2022/11/03 11:40:12;;;;;;;6.43;2.50;;;16.50;99.90;;;;;;5046942;28;20067;-63
2022/11/03 11:43:03;;;;;;;7.85;2.40;;;16.60;99.90;;;;;;5069236;28;20053;-63
2022/11/03 11:46:06;;;;;;;8.68;2.70;;;16.50;99.90;;;;;;5046928;28;20056;-63
2022/11/03 11:48:32;;;;;;;7.93;2.30;;;16.50;99.90;;;;;;5077545;28;20131;-63
2022/11/03 11:50:58;;;;;;;8.60;2.55;;;16.40;99.90;;;;;;5067314;28;20052;-62
2022/11/03 11:53:25;;;;;;;10.98;3.00;;;16.30;99.90;;;;;;5077548;28;20048;-62
2022/11/03 11:55:52;;;;;;;9.93;2.30;;;16.30;99.90;;;;;;5046641;28;20054;-63
2022/11/03 11:58:23;;;;;;;9.35;2.72;;;16.20;99.90;;;;;;5076595;28;20048;-62
2022/11/03 12:00:58;;;;;;;7.90;2.50;;;16.10;99.90;;;;;;5047210;28;20132;-63
2022/11/03 12:03:37;;;;;;;9.45;2.28;;;16.00;99.90;;;;;;5059592;28;20070;-63
2022/11/03 12:06:03;;;;;;;7.45;2.28;;;16.10;99.90;;;;;;5050325;28;20452;-63
2022/11/03 12:08:30;;;;;;;6.47;2.15;;;16.00;99.90;;;;;;5077522;28;20151;-63
2022/11/03 12:10:58;;;;;;;9.50;2.53;;;16.10;99.90;;;;;;5057005;28;20053;-63
2022/11/03 12:13:46;;;;;;;10.45;2.67;;;16.00;99.90;;;;;;5077552;28;20048;-63
2022/11/03 12:16:35;;;;;;;8.20;2.40;;;16.00;99.90;;;;;;5050725;28;20053;-62
2022/11/03 12:19:32;;;;;;;12.23;2.67;;;16.00;99.90;;;;;;5068210;28;20052;-63
2022/11/03 12:21:57;;;;;;;9.20;2.20;;;15.90;99.90;;;;;;5046549;28;20041;-63
2022/11/03 12:24:38;;;;;;;6.63;2.35;;;15.80;99.90;;;;;;5049098;28;20523;-63
2022/11/03 12:27:39;;;;;;;8.63;2.55;;;15.90;99.90;;;;;;5063035;28;20052;-63
2022/11/03 12:30:17;;;;;;;11.68;2.80;;;15.80;99.90;;;;;;5050140;28;20619;-63
2022/11/03 12:32:44;;;;;;;8.90;2.83;;;15.60;99.90;;;;;;5076937;28;20420;-62
2022/11/03 12:35:12;;;;;;;5.13;2.13;;;15.60;99.90;;;;;;5065974;28;20057;-63
2022/11/03 12:37:38;;;;;;;8.93;3.05;;;15.60;99.90;;;;;;5049045;28;20051;-63
2022/11/03 12:40:05;;;;;;;11.38;2.55;;;15.60;99.90;;;;;;5064328;28;20053;-63
2022/11/03 12:42:31;;;;;;;10.45;2.70;;;15.60;99.90;;;;;;5064972;28;20052;-63
2022/11/03 12:44:57;;;;;;;6.95;2.13;;;15.60;99.90;;;;;;5066279;28;20087;-64
2022/11/03 12:47:23;;;;;;;9.27;2.67;;;15.50;99.90;;;;;;5050421;28;20307;-62
2022/11/03 12:49:48;;;;;;;7.82;2.30;;;15.50;99.90;;;;;;5033172;28;20087;-62
2022/11/03 12:52:14;;;;;;;7.43;2.38;;;15.50;99.90;;;;;;5036710;28;20395;-65
2022/11/03 12:54:41;;;;;;;4.95;2.00;;;15.50;99.90;;;;;;5028351;28;20058;-65
2022/11/03 12:57:06;;;;;;;9.80;2.28;;;15.50;99.90;;;;;;5055691;28;20083;-65
2022/11/03 12:59:32;;;;;;;7.40;1.98;;;15.50;99.90;;;;;;5049713;28;20041;-66
2022/11/03 13:01:58;;;;;;;9.63;2.50;;;15.50;99.90;;;;;;5054496;28;20152;-63
2022/11/03 13:04:24;;;;;;;8.75;2.08;;;15.60;99.90;;;;;;5046788;28;20084;-65
2022/11/03 13:06:49;;;;;;;9.27;2.10;;;15.60;99.90;;;;;;5072348;28;20057;-63
2022/11/03 13:09:15;;;;;;;7.38;2.38;;;15.60;99.90;;;;;;5057362;28;20052;-63
2022/11/03 13:14:25;;;;;;;5.18;1.83;;;15.70;99.90;;;;;;5044691;28;20067;-69